Time;durP1;ratioP1;P1;durP2;ratioP2;P2;SDS_P1;SDS_P2;PMS_P1;PMS_P2;Temp;Humidity;BMP_temperature;BMP_pressure;BME280_temperature;BME280_humidity;BME280_pressure;Samples;Min_cycle;Max_cycle;Signal;HPM_P1;HPM_P2
2023/07/06 00:01:45;;;;;;;5.03;2.27;;;16.70;98.00;;;;;;4991891;28;20464;-72
2023/07/06 00:04:13;;;;;;;4.17;2.50;;;16.50;98.00;;;;;;4990683;28;20824;-72
2023/07/06 00:06:42;;;;;;;6.00;2.87;;;16.30;98.00;;;;;;4991910;28;20471;-72
2023/07/06 00:09:10;;;;;;;3.87;2.30;;;16.20;98.00;;;;;;4990867;28;20472;-71
2023/07/06 00:11:39;;;;;;;3.30;2.20;;;16.10;98.00;;;;;;4991915;28;20955;-71
2023/07/06 00:14:10;;;;;;;3.33;2.20;;;16.10;98.00;;;;;;4991761;28;20472;-71
2023/07/06 00:16:41;;;;;;;3.90;2.40;;;16.10;98.00;;;;;;4991641;28;20477;-71
2023/07/06 00:19:08;;;;;;;3.70;2.37;;;16.10;98.00;;;;;;4991851;28;20551;-71
2023/07/06 00:21:35;;;;;;;5.57;2.60;;;16.30;98.00;;;;;;4991878;28;20959;-71
2023/07/06 00:24:02;;;;;;;3.63;2.27;;;16.50;98.00;;;;;;4991962;28;20456;-71
2023/07/06 00:26:29;;;;;;;3.60;2.17;;;16.80;98.00;;;;;;4995131;28;20460;-71
2023/07/06 00:28:58;;;;;;;3.13;2.10;;;16.90;98.00;;;;;;4996221;28;20468;-71
2023/07/06 00:31:32;;;;;;;3.40;2.13;;;17.00;98.00;;;;;;4995865;28;20738;-71
2023/07/06 00:34:03;;;;;;;4.13;2.30;;;16.80;98.00;;;;;;4995533;28;20530;-71
2023/07/06 00:36:31;;;;;;;3.90;2.23;;;16.70;98.00;;;;;;4995821;28;20460;-71
2023/07/06 00:39:01;;;;;;;4.00;2.60;;;16.60;98.00;;;;;;4995607;28;20464;-71
2023/07/06 00:41:28;;;;;;;3.77;2.37;;;16.60;98.00;;;;;;4995631;28;20518;-71
2023/07/06 00:43:56;;;;;;;3.70;2.47;;;16.50;98.00;;;;;;4995363;28;20551;-72
2023/07/06 00:46:29;;;;;;;4.20;2.23;;;16.40;98.00;;;;;;4995601;28;20479;-71
2023/07/06 00:48:59;;;;;;;3.17;2.30;;;16.40;98.00;;;;;;4995459;28;20908;-71
2023/07/06 00:51:33;;;;;;;3.70;2.57;;;16.40;98.00;;;;;;4995312;28;20809;-71
2023/07/06 00:54:04;;;;;;;3.43;2.10;;;16.60;98.00;;;;;;4995314;28;20515;-71
2023/07/06 00:56:40;;;;;;;3.70;2.50;;;16.80;98.00;;;;;;4995245;28;20471;-71
2023/07/06 00:59:09;;;;;;;3.80;2.63;;;16.90;98.00;;;;;;4995487;28;20542;-72
2023/07/06 01:01:41;;;;;;;2.60;2.20;;;16.70;98.00;;;;;;4995971;28;20460;-71
2023/07/06 01:04:11;;;;;;;4.40;2.80;;;16.60;98.00;;;;;;4995666;28;20463;-71
2023/07/06 01:06:47;;;;;;;4.20;2.70;;;16.50;98.00;;;;;;4995255;28;20563;-71
2023/07/06 01:09:17;;;;;;;3.60;2.40;;;16.30;98.00;;;;;;4995503;28;20464;-71
2023/07/06 01:11:45;;;;;;;4.10;2.30;;;16.10;98.00;;;;;;4995916;28;20883;-71
2023/07/06 01:14:14;;;;;;;3.43;2.20;;;15.90;98.00;;;;;;4995513;28;20676;-71
2023/07/06 01:16:47;;;;;;;3.87;2.50;;;15.90;98.00;;;;;;4995530;28;20476;-71
2023/07/06 01:19:43;;;;;;;2.83;2.10;;;15.90;98.00;;;;;;4995311;28;20460;-71
2023/07/06 01:22:25;;;;;;;3.80;2.17;;;16.00;98.00;;;;;;4995213;28;20880;-71
2023/07/06 01:25:17;;;;;;;3.30;2.37;;;16.00;98.00;;;;;;4995056;28;20468;-71
2023/07/06 01:28:00;;;;;;;3.47;2.20;;;15.90;98.00;;;;;;4994862;28;20464;-71
2023/07/06 01:30:58;;;;;;;3.17;2.10;;;15.80;98.00;;;;;;4995057;28;20531;-71
2023/07/06 01:33:33;;;;;;;3.10;1.93;;;16.00;98.00;;;;;;4993270;28;20488;-71
2023/07/06 01:36:08;;;;;;;3.80;2.57;;;16.00;98.00;;;;;;4994389;28;20839;-71
2023/07/06 01:38:37;;;;;;;5.83;2.80;;;16.00;98.00;;;;;;4993677;28;20563;-71
2023/07/06 01:41:06;;;;;;;3.10;2.23;;;16.10;98.00;;;;;;4994334;28;20464;-71
2023/07/06 01:43:34;;;;;;;4.50;2.50;;;15.80;98.00;;;;;;4994508;28;20510;-71
2023/07/06 01:46:02;;;;;;;4.60;2.80;;;15.60;98.00;;;;;;4994155;28;20986;-71
2023/07/06 01:48:31;;;;;;;6.20;2.70;;;15.40;98.00;;;;;;4994716;28;20460;-72
2023/07/06 01:51:07;;;;;;;3.10;2.30;;;15.20;98.00;;;;;;4994300;28;20464;-71
2023/07/06 01:53:44;;;;;;;3.30;2.40;;;15.20;98.00;;;;;;4994379;28;20488;-71
2023/07/06 01:56:17;;;;;;;4.90;2.80;;;15.30;98.00;;;;;;4994232;28;20467;-71
2023/07/06 01:58:51;;;;;;;3.47;2.43;;;15.40;98.00;;;;;;4994212;28;20944;-71
2023/07/06 02:01:24;;;;;;;2.70;1.97;;;15.30;98.00;;;;;;4994285;28;20449;-71
2023/07/06 02:03:53;;;;;;;2.70;2.00;;;15.20;98.00;;;;;;4994037;28;20511;-71
2023/07/06 02:06:21;;;;;;;3.40;2.13;;;15.10;98.00;;;;;;4993884;28;20492;-71
2023/07/06 02:08:50;;;;;;;4.40;2.73;;;15.00;98.00;;;;;;4993832;28;20471;-71
2023/07/06 02:11:21;;;;;;;4.30;2.60;;;14.90;98.00;;;;;;4994017;28;20468;-71
2023/07/06 02:13:48;;;;;;;3.97;2.40;;;14.70;98.00;;;;;;4993964;28;20828;-71
2023/07/06 02:16:15;;;;;;;4.10;2.40;;;14.60;98.00;;;;;;4993906;28;20472;-71
2023/07/06 02:18:43;;;;;;;2.80;2.13;;;14.60;98.00;;;;;;4993896;28;20476;-71
2023/07/06 02:21:11;;;;;;;4.63;2.30;;;14.40;98.00;;;;;;4993763;28;20467;-71
2023/07/06 02:23:38;;;;;;;5.10;2.47;;;14.40;98.00;;;;;;4993735;28;20457;-71
2023/07/06 02:26:05;;;;;;;4.97;2.60;;;14.40;98.00;;;;;;4993621;28;20823;-71
2023/07/06 02:28:32;;;;;;;2.87;2.20;;;14.40;98.00;;;;;;4993699;28;20461;-71
2023/07/06 02:31:01;;;;;;;3.60;2.60;;;14.30;98.00;;;;;;4993662;28;20471;-71
2023/07/06 02:33:30;;;;;;;4.00;2.37;;;14.20;98.00;;;;;;4992100;28;20488;-71
2023/07/06 02:35:57;;;;;;;2.80;2.00;;;14.20;98.00;;;;;;4993398;28;20800;-71
2023/07/06 02:38:29;;;;;;;3.00;2.20;;;14.20;98.00;;;;;;4993287;28;20472;-71
2023/07/06 02:40:57;;;;;;;4.70;2.43;;;14.30;98.00;;;;;;4993266;28;20545;-71
2023/07/06 02:43:25;;;;;;;3.17;2.10;;;14.30;98.00;;;;;;4993456;28;20947;-71
2023/07/06 02:45:52;;;;;;;6.53;2.50;;;14.40;98.00;;;;;;4993320;28;20511;-71
2023/07/06 02:48:19;;;;;;;4.00;2.40;;;14.40;98.00;;;;;;4992841;28;20968;-71
2023/07/06 02:50:49;;;;;;;6.13;2.47;;;14.40;98.00;;;;;;4993195;28;20467;-71
2023/07/06 02:53:17;;;;;;;3.07;2.47;;;14.30;98.00;;;;;;4993032;28;20512;-71
2023/07/06 02:55:47;;;;;;;3.10;2.20;;;14.20;98.00;;;;;;4993346;28;20472;-71
2023/07/06 02:58:15;;;;;;;4.43;2.80;;;14.10;98.00;;;;;;4992933;28;20472;-71
2023/07/06 03:00:42;;;;;;;2.77;2.27;;;14.00;98.00;;;;;;4992984;28;20468;-71
2023/07/06 03:03:09;;;;;;;3.23;2.40;;;13.80;98.00;;;;;;4992843;28;20456;-71
2023/07/06 03:05:36;;;;;;;3.00;2.30;;;13.90;98.00;;;;;;4993151;28;20946;-71
2023/07/06 03:08:04;;;;;;;5.77;2.57;;;13.90;98.00;;;;;;4993098;28;20470;-71
2023/07/06 03:10:32;;;;;;;3.93;2.20;;;13.90;98.00;;;;;;4993040;28;20468;-71
2023/07/06 03:13:01;;;;;;;3.97;2.30;;;13.80;98.00;;;;;;4992548;28;20494;-71
2023/07/06 03:15:28;;;;;;;3.53;2.27;;;13.90;98.00;;;;;;4992715;28;20559;-71
2023/07/06 03:17:55;;;;;;;3.03;2.17;;;13.80;98.00;;;;;;4992510;28;20467;-71
2023/07/06 03:20:23;;;;;;;4.70;2.40;;;13.80;98.00;;;;;;4992551;28;20464;-71
2023/07/06 03:22:54;;;;;;;3.83;2.27;;;13.80;98.00;;;;;;4992342;28;20457;-70
2023/07/06 03:25:23;;;;;;;4.87;2.53;;;13.70;98.00;;;;;;4992469;28;20838;-72
2023/07/06 03:27:50;;;;;;;4.23;2.50;;;13.60;98.00;;;;;;4992432;28;20468;-71
2023/07/06 03:30:21;;;;;;;3.80;2.27;;;13.60;98.00;;;;;;4992490;28;20468;-71
2023/07/06 03:32:48;;;;;;;5.83;3.03;;;13.50;98.00;;;;;;4992416;28;20467;-71
2023/07/06 03:35:15;;;;;;;4.67;2.57;;;13.60;98.00;;;;;;4992554;28;20518;-71
2023/07/06 03:37:45;;;;;;;4.00;2.47;;;13.70;98.00;;;;;;4992237;28;20468;-71
2023/07/06 03:40:14;;;;;;;3.47;2.40;;;13.80;98.00;;;;;;4992240;28;20471;-71
2023/07/06 03:42:43;;;;;;;4.03;2.47;;;13.90;98.00;;;;;;4991194;28;20875;-71
2023/07/06 03:45:11;;;;;;;4.27;2.30;;;13.90;98.00;;;;;;4991967;28;20460;-71
2023/07/06 03:47:42;;;;;;;3.33;2.07;;;14.00;98.00;;;;;;4991928;28;20551;-71
2023/07/06 03:50:10;;;;;;;3.70;2.50;;;14.10;98.00;;;;;;4990829;28;20943;-71
2023/07/06 03:52:38;;;;;;;3.73;2.23;;;14.10;98.00;;;;;;4991983;28;20461;-71
2023/07/06 03:55:08;;;;;;;4.13;2.17;;;14.10;98.00;;;;;;4991992;28;20460;-71
2023/07/06 03:57:37;;;;;;;3.57;2.27;;;14.20;98.00;;;;;;4991956;28;20460;-71
2023/07/06 04:00:08;;;;;;;3.87;2.50;;;14.20;98.00;;;;;;4991737;28;20970;-71
2023/07/06 04:02:39;;;;;;;5.57;2.90;;;14.00;98.00;;;;;;4992255;28;20464;-71
2023/07/06 04:05:08;;;;;;;8.60;2.50;;;13.90;98.00;;;;;;4992275;28;20861;-71
2023/07/06 04:07:35;;;;;;;2.90;2.07;;;13.80;98.00;;;;;;4991963;28;20471;-71
2023/07/06 04:10:03;;;;;;;3.07;2.27;;;13.90;98.00;;;;;;4991854;28;20468;-71
2023/07/06 04:12:32;;;;;;;3.87;2.47;;;13.80;98.00;;;;;;4991969;28;20464;-71
2023/07/06 04:14:59;;;;;;;3.43;2.20;;;13.80;98.00;;;;;;4991920;28;20484;-71
2023/07/06 04:17:28;;;;;;;3.23;2.10;;;13.70;98.00;;;;;;4992246;28;20464;-71
2023/07/06 04:20:00;;;;;;;4.43;2.77;;;13.80;98.00;;;;;;4991969;28;20506;-71
2023/07/06 04:22:27;;;;;;;3.63;2.40;;;14.00;98.00;;;;;;4991724;28;20461;-71
2023/07/06 04:24:54;;;;;;;3.77;2.20;;;14.10;98.00;;;;;;4991652;28;20460;-71
2023/07/06 04:27:21;;;;;;;3.53;2.40;;;14.20;98.00;;;;;;4991591;28;20464;-72
2023/07/06 04:29:49;;;;;;;5.40;2.53;;;14.10;98.00;;;;;;4991733;28;20472;-71
2023/07/06 04:32:16;;;;;;;3.33;2.50;;;14.00;98.00;;;;;;4991550;28;20481;-70
2023/07/06 04:34:43;;;;;;;3.90;2.50;;;14.00;98.00;;;;;;4991707;28;20488;-71
2023/07/06 04:37:12;;;;;;;2.70;1.90;;;14.00;98.00;;;;;;4991676;28;20472;-71
2023/07/06 04:39:42;;;;;;;3.70;2.50;;;13.90;98.00;;;;;;4990459;28;20470;-71
2023/07/06 04:42:10;;;;;;;4.00;2.33;;;13.90;98.00;;;;;;4991534;28;20468;-71
2023/07/06 04:44:37;;;;;;;2.97;2.20;;;13.90;98.00;;;;;;4991285;28;20810;-71
2023/07/06 04:47:04;;;;;;;3.73;2.47;;;13.90;98.00;;;;;;4991605;28;20464;-71
2023/07/06 04:49:31;;;;;;;3.23;2.03;;;13.90;98.00;;;;;;4991641;28;20468;-71
2023/07/06 04:51:58;;;;;;;4.13;2.40;;;14.00;98.00;;;;;;4991622;28;20467;-71
2023/07/06 04:54:28;;;;;;;5.17;2.60;;;14.10;98.00;;;;;;4991670;28;20488;-71
2023/07/06 04:56:55;;;;;;;4.60;2.50;;;14.30;98.00;;;;;;4991623;28;20881;-71
2023/07/06 04:59:26;;;;;;;4.00;2.30;;;14.50;98.00;;;;;;4991787;28;20461;-71
2023/07/06 05:01:53;;;;;;;4.00;2.77;;;14.60;98.00;;;;;;4991604;28;20547;-71
2023/07/06 05:04:20;;;;;;;4.93;2.70;;;14.70;98.00;;;;;;4991209;28;20472;-71
2023/07/06 05:06:47;;;;;;;6.10;2.80;;;14.80;98.00;;;;;;4991452;28;20547;-71
2023/07/06 05:09:14;;;;;;;5.97;2.90;;;14.60;98.00;;;;;;4991347;28;20522;-71
2023/07/06 05:11:42;;;;;;;4.73;2.60;;;14.50;98.00;;;;;;4992901;28;20950;-71
2023/07/06 05:14:09;;;;;;;4.13;2.60;;;14.40;98.00;;;;;;4994676;28;20515;-72
2023/07/06 05:16:36;;;;;;;3.70;2.63;;;14.40;98.00;;;;;;4994914;28;20468;-71
2023/07/06 05:19:04;;;;;;;9.67;2.70;;;14.40;98.00;;;;;;4994676;28;20515;-71
2023/07/06 05:21:33;;;;;;;4.60;2.43;;;14.40;98.00;;;;;;4995059;28;20468;-71
2023/07/06 05:24:00;;;;;;;4.53;2.43;;;14.40;98.00;;;;;;4993763;28;20456;-72
2023/07/06 05:26:27;;;;;;;3.70;2.67;;;14.60;98.00;;;;;;4994827;28;20464;-71
2023/07/06 05:28:56;;;;;;;6.30;2.93;;;14.80;98.00;;;;;;4994714;28;20952;-71
2023/07/06 05:31:23;;;;;;;6.17;2.80;;;15.00;98.00;;;;;;4994596;28;20464;-71
2023/07/06 05:33:50;;;;;;;5.93;2.73;;;15.20;98.00;;;;;;4994473;28;20488;-71
2023/07/06 05:36:17;;;;;;;5.03;2.80;;;15.30;98.00;;;;;;4994569;28;20464;-71
2023/07/06 05:38:44;;;;;;;5.90;2.80;;;15.50;98.00;;;;;;4994408;28;20999;-71
2023/07/06 05:41:11;;;;;;;4.87;2.90;;;15.70;98.00;;;;;;4994525;28;20464;-71
2023/07/06 05:43:38;;;;;;;5.13;2.97;;;15.80;98.00;;;;;;4994543;28;20947;-71
2023/07/06 05:46:06;;;;;;;3.70;2.30;;;15.90;98.00;;;;;;4994383;28;20472;-71
2023/07/06 05:48:34;;;;;;;6.07;3.10;;;15.90;98.00;;;;;;4994446;28;20468;-71
2023/07/06 05:51:01;;;;;;;4.37;2.50;;;16.00;98.00;;;;;;4994306;28;20519;-71
2023/07/06 05:53:29;;;;;;;4.10;2.70;;;16.10;98.00;;;;;;4994304;28;20467;-69
2023/07/06 05:55:56;;;;;;;4.97;2.60;;;16.20;98.00;;;;;;4994551;28;20472;-72
2023/07/06 05:58:23;;;;;;;3.50;2.40;;;16.20;98.00;;;;;;4994111;28;20535;-72
2023/07/06 06:00:52;;;;;;;4.27;2.70;;;16.20;98.00;;;;;;4994203;28;20467;-72
2023/07/06 06:03:20;;;;;;;5.20;2.63;;;16.40;98.00;;;;;;4994124;28;20748;-72
2023/07/06 06:05:49;;;;;;;5.03;3.00;;;16.40;98.00;;;;;;4993975;28;20551;-72
2023/07/06 06:08:18;;;;;;;5.47;3.10;;;16.40;98.00;;;;;;4994091;28;20468;-72
2023/07/06 06:10:45;;;;;;;4.13;2.37;;;16.40;98.00;;;;;;4993983;28;20461;-72
2023/07/06 06:13:13;;;;;;;5.43;2.67;;;16.60;98.00;;;;;;4994000;28;20460;-71
2023/07/06 06:15:40;;;;;;;4.63;2.97;;;16.80;98.00;;;;;;4993705;28;20575;-72
2023/07/06 06:18:07;;;;;;;3.83;2.50;;;17.00;98.00;;;;;;4993791;28;20958;-72
2023/07/06 06:20:37;;;;;;;5.20;2.77;;;17.10;98.00;;;;;;4992169;28;20464;-72
2023/07/06 06:23:07;;;;;;;4.43;2.40;;;17.20;98.00;;;;;;4992927;28;20730;-71
2023/07/06 06:25:34;;;;;;;5.40;2.60;;;17.20;98.00;;;;;;4993617;28;20460;-72
2023/07/06 06:28:01;;;;;;;4.47;2.87;;;17.30;98.00;;;;;;4993559;28;20465;-72
2023/07/06 06:30:28;;;;;;;4.97;2.70;;;17.40;98.00;;;;;;4993561;28;20674;-71
2023/07/06 06:32:57;;;;;;;4.63;3.20;;;17.50;98.00;;;;;;4993519;28;20962;-72
2023/07/06 06:35:27;;;;;;;7.03;2.97;;;17.50;98.00;;;;;;4993502;28;20488;-72
2023/07/06 06:37:57;;;;;;;4.60;2.63;;;17.60;98.00;;;;;;4993470;28;20515;-72
2023/07/06 06:40:25;;;;;;;3.33;2.37;;;17.60;98.00;;;;;;4993427;28;20465;-72
2023/07/06 06:42:53;;;;;;;4.70;2.40;;;17.90;98.00;;;;;;4993384;28;20453;-71
2023/07/06 06:45:21;;;;;;;3.00;2.40;;;17.90;98.00;;;;;;4993352;28;20528;-71
2023/07/06 06:47:49;;;;;;;4.43;2.70;;;18.00;98.00;;;;;;4993424;28;20500;-72
2023/07/06 06:50:16;;;;;;;3.80;2.70;;;18.10;98.00;;;;;;4993333;28;20468;-72
2023/07/06 06:52:44;;;;;;;4.10;2.50;;;18.20;98.00;;;;;;4993191;28;20468;-72
2023/07/06 06:55:12;;;;;;;6.00;2.97;;;18.30;98.00;;;;;;4993127;28;21026;-72
2023/07/06 06:57:39;;;;;;;5.10;3.10;;;18.40;98.00;;;;;;4993064;28;20868;-72
2023/07/06 07:00:09;;;;;;;8.63;4.10;;;18.50;98.00;;;;;;4992936;28;20527;-72
2023/07/06 07:02:38;;;;;;;4.30;2.80;;;18.60;98.00;;;;;;4993034;28;20519;-72
2023/07/06 07:05:06;;;;;;;3.50;2.40;;;18.70;98.00;;;;;;4992334;28;20467;-72
2023/07/06 07:07:33;;;;;;;2.80;2.20;;;18.80;98.00;;;;;;4992119;28;20469;-72
2023/07/06 07:10:00;;;;;;;5.30;3.03;;;18.90;98.00;;;;;;4992664;28;20467;-72
2023/07/06 07:12:29;;;;;;;4.20;2.70;;;19.00;98.00;;;;;;4992496;28;20465;-72
2023/07/06 07:14:56;;;;;;;6.63;2.47;;;19.00;98.00;;;;;;4992515;28;20858;-72
2023/07/06 07:17:23;;;;;;;3.47;2.53;;;19.10;98.00;;;;;;4992373;28;20468;-72
2023/07/06 07:19:51;;;;;;;4.40;2.67;;;19.10;98.00;;;;;;4992671;28;20471;-72
2023/07/06 07:22:18;;;;;;;3.80;2.47;;;19.20;98.00;;;;;;4992271;28;20954;-72
2023/07/06 07:24:47;;;;;;;3.57;2.20;;;19.30;98.00;;;;;;4991266;28;20946;-72
2023/07/06 07:27:17;;;;;;;3.33;2.33;;;19.40;98.00;;;;;;4990972;28;20495;-72
2023/07/06 07:29:47;;;;;;;3.30;2.30;;;19.60;98.00;;;;;;4993033;28;20492;-72
2023/07/06 07:32:14;;;;;;;4.37;2.53;;;19.70;98.00;;;;;;4992760;28;20466;-72
2023/07/06 07:34:43;;;;;;;4.70;2.23;;;19.80;97.60;;;;;;4992293;28;20519;-72
2023/07/06 07:37:14;;;;;;;3.60;2.40;;;19.90;97.50;;;;;;4992094;28;20468;-72
2023/07/06 07:39:41;;;;;;;3.40;2.20;;;20.00;95.90;;;;;;4992240;28;20475;-72
2023/07/06 07:42:10;;;;;;;4.00;2.30;;;20.10;95.70;;;;;;4992110;28;20468;-72
2023/07/06 07:44:37;;;;;;;2.47;2.00;;;20.20;95.50;;;;;;4992406;28;20460;-72
2023/07/06 07:47:07;;;;;;;2.93;2.17;;;20.20;95.30;;;;;;4991190;28;20465;-72
2023/07/06 07:49:35;;;;;;;3.53;2.20;;;20.30;95.40;;;;;;4992168;28;20463;-72
2023/07/06 07:52:12;;;;;;;2.70;2.00;;;20.40;94.50;;;;;;4992770;28;20460;-72
2023/07/06 07:54:39;;;;;;;4.20;2.20;;;20.60;95.10;;;;;;4992452;28;20596;-72
2023/07/06 07:57:07;;;;;;;3.40;2.70;;;20.70;93.90;;;;;;4991401;28;20876;-72
2023/07/06 07:59:34;;;;;;;5.13;2.00;;;20.80;93.80;;;;;;4992711;28;20464;-72
2023/07/06 08:02:01;;;;;;;4.53;2.40;;;20.80;92.70;;;;;;4992668;28;20821;-72
2023/07/06 08:04:31;;;;;;;4.03;2.13;;;20.90;92.90;;;;;;4992476;28;20456;-72
2023/07/06 08:06:58;;;;;;;3.07;2.13;;;21.00;92.00;;;;;;4992198;28;20527;-72
2023/07/06 08:09:28;;;;;;;3.97;2.50;;;21.00;92.30;;;;;;4991464;28;20457;-72
2023/07/06 08:11:55;;;;;;;4.57;3.07;;;21.10;92.50;;;;;;4990547;28;20468;-72
2023/07/06 08:14:46;;;;;;;4.43;2.33;;;21.20;91.30;;;;;;4991538;28;20484;-72
2023/07/06 08:17:14;;;;;;;2.97;2.10;;;21.40;90.80;;;;;;4991583;28;20457;-72
2023/07/06 08:19:45;;;;;;;4.70;2.27;;;21.50;91.40;;;;;;4991935;28;20993;-72
2023/07/06 08:22:12;;;;;;;5.13;2.20;;;21.70;91.60;;;;;;4991637;28;20463;-72
2023/07/06 08:24:39;;;;;;;4.73;2.30;;;21.90;91.40;;;;;;4991667;28;20463;-72
2023/07/06 08:27:07;;;;;;;3.73;2.40;;;22.00;90.50;;;;;;4991835;28;20804;-73
2023/07/06 08:29:34;;;;;;;2.80;2.00;;;22.10;89.90;;;;;;4991472;28;20468;-72
2023/07/06 08:32:03;;;;;;;2.60;2.00;;;22.20;89.10;;;;;;4991639;28;20978;-72
2023/07/06 08:34:31;;;;;;;3.77;2.40;;;22.30;88.60;;;;;;4990319;28;20543;-72
2023/07/06 08:36:59;;;;;;;4.60;2.20;;;22.40;89.30;;;;;;4991703;28;20515;-72
2023/07/06 08:39:27;;;;;;;3.47;2.40;;;22.40;89.20;;;;;;4991576;28;20475;-72
2023/07/06 08:41:54;;;;;;;3.70;2.50;;;22.60;89.00;;;;;;4991885;28;20591;-73
2023/07/06 08:44:21;;;;;;;4.10;2.20;;;22.60;88.40;;;;;;4991402;28;21027;-73
2023/07/06 08:46:50;;;;;;;3.87;2.60;;;22.70;87.60;;;;;;4993305;28;20496;-72
2023/07/06 08:49:29;;;;;;;4.70;2.40;;;22.80;87.30;;;;;;4991202;28;20469;-73
2023/07/06 08:51:57;;;;;;;4.23;2.80;;;22.90;87.30;;;;;;4978393;28;20550;-72
2023/07/06 08:54:27;;;;;;;3.30;2.40;;;23.10;88.20;;;;;;4986567;28;20464;-72
2023/07/06 08:56:55;;;;;;;2.77;2.30;;;23.20;87.00;;;;;;4994671;28;20468;-73
2023/07/06 08:59:35;;;;;;;2.30;1.93;;;23.30;85.70;;;;;;4994533;28;20464;-73
2023/07/06 09:02:10;;;;;;;2.73;2.20;;;23.40;86.00;;;;;;4994530;28;20471;-73
2023/07/06 09:04:38;;;;;;;3.30;2.30;;;23.50;85.70;;;;;;4995066;28;20468;-72
2023/07/06 09:07:12;;;;;;;3.80;2.30;;;23.60;85.40;;;;;;4994926;28;20947;-73
2023/07/06 09:09:44;;;;;;;3.70;2.53;;;23.80;84.20;;;;;;4993710;28;20480;-72
2023/07/06 09:12:20;;;;;;;5.77;2.80;;;23.90;83.70;;;;;;4994985;28;20456;-73
2023/07/06 09:14:51;;;;;;;2.60;2.30;;;24.00;84.10;;;;;;4994737;28;20491;-72
2023/07/06 09:17:18;;;;;;;4.30;2.67;;;24.20;84.70;;;;;;4994857;28;20464;-73
2023/07/06 09:19:46;;;;;;;3.90;2.67;;;24.40;83.60;;;;;;4994652;28;20861;-73
2023/07/06 09:22:13;;;;;;;4.00;2.40;;;24.40;81.70;;;;;;4993887;28;20526;-73
2023/07/06 09:24:46;;;;;;;3.60;2.50;;;24.10;81.80;;;;;;4993200;28;20465;-73
2023/07/06 09:27:18;;;;;;;3.20;2.40;;;23.90;82.60;;;;;;4994131;28;20559;-72
2023/07/06 09:29:56;;;;;;;4.50;2.47;;;23.90;82.50;;;;;;4993818;28;20551;-73
2023/07/06 09:32:23;;;;;;;4.40;2.73;;;24.10;81.80;;;;;;4993659;28;20546;-73
2023/07/06 09:34:51;;;;;;;3.90;2.43;;;24.20;81.20;;;;;;4995038;28;20539;-73
2023/07/06 09:37:21;;;;;;;3.67;2.17;;;24.30;82.30;;;;;;4995113;28;20461;-73
2023/07/06 09:40:01;;;;;;;3.90;2.60;;;24.40;80.10;;;;;;4995446;28;20499;-72
2023/07/06 09:42:29;;;;;;;3.33;2.10;;;24.40;80.10;;;;;;4995183;28;20467;-73
2023/07/06 09:44:57;;;;;;;6.13;2.50;;;24.70;81.00;;;;;;4995319;28;20555;-73
2023/07/06 09:47:24;;;;;;;3.77;2.50;;;25.00;80.70;;;;;;4994929;28;20486;-73
2023/07/06 09:49:57;;;;;;;4.87;2.57;;;25.10;78.70;;;;;;4995323;28;20468;-73
2023/07/06 09:52:25;;;;;;;3.20;2.23;;;24.90;78.30;;;;;;4993556;28;20530;-73
2023/07/06 09:55:03;;;;;;;2.90;2.30;;;24.60;76.90;;;;;;4994893;28;20543;-72
2023/07/06 09:57:36;;;;;;;3.83;2.50;;;24.30;77.20;;;;;;4993881;28;20449;-73
2023/07/06 10:00:05;;;;;;;3.03;2.20;;;24.20;78.00;;;;;;4994816;28;20464;-73
2023/07/06 10:02:37;;;;;;;3.90;2.40;;;24.10;77.40;;;;;;4994906;28;20461;-73
2023/07/06 10:05:17;;;;;;;3.13;2.23;;;24.50;79.80;;;;;;4994850;28;20539;-73
2023/07/06 10:07:52;;;;;;;3.90;2.63;;;24.80;78.00;;;;;;4994831;28;20467;-73
2023/07/06 10:10:32;;;;;;;3.43;2.33;;;25.30;76.90;;;;;;4994786;28;20488;-73
2023/07/06 10:13:04;;;;;;;3.60;2.23;;;25.80;74.20;;;;;;4994833;28;20955;-73
2023/07/06 10:15:37;;;;;;;5.00;2.30;;;26.10;76.40;;;;;;4994164;28;20495;-73
2023/07/06 10:18:13;;;;;;;3.40;2.43;;;26.20;75.50;;;;;;4994099;28;20461;-73
2023/07/06 10:20:44;;;;;;;3.77;2.30;;;26.40;73.80;;;;;;4993930;28;20554;-73
2023/07/06 10:23:23;;;;;;;3.93;2.57;;;26.40;74.00;;;;;;4993811;28;20487;-73
2023/07/06 10:26:02;;;;;;;4.40;2.50;;;26.50;73.00;;;;;;4994128;28;20518;-73
2023/07/06 10:28:33;;;;;;;4.53;2.43;;;26.30;72.90;;;;;;4996993;28;20460;-73
2023/07/06 10:31:03;;;;;;;3.60;2.70;;;26.00;73.40;;;;;;4999264;28;20568;-72
2023/07/06 10:33:37;;;;;;;4.70;2.60;;;26.10;74.10;;;;;;4994057;28;20464;-73
2023/07/06 10:36:07;;;;;;;3.90;2.53;;;26.20;74.00;;;;;;4992616;28;20500;-73
2023/07/06 10:38:35;;;;;;;4.07;2.40;;;26.40;73.10;;;;;;4994375;28;20812;-72
2023/07/06 10:41:29;;;;;;;3.00;2.37;;;26.50;72.50;;;;;;4992763;28;20464;-73
2023/07/06 10:43:59;;;;;;;3.87;2.53;;;26.80;73.50;;;;;;4994109;28;20465;-73
2023/07/06 10:46:35;;;;;;;2.90;2.30;;;27.10;73.50;;;;;;4993984;28;20815;-73
2023/07/06 10:49:18;;;;;;;6.43;2.50;;;27.50;72.40;;;;;;4994100;28;20871;-73
2023/07/06 10:51:51;;;;;;;3.80;2.70;;;27.80;70.80;;;;;;4994116;28;20460;-73
2023/07/06 10:54:23;;;;;;;5.80;2.87;;;27.90;70.60;;;;;;4993783;28;20472;-73
2023/07/06 10:57:00;;;;;;;4.80;3.07;;;28.00;70.10;;;;;;4998850;28;20486;-74
2023/07/06 10:59:37;;;;;;;4.30;2.77;;;28.10;70.30;;;;;;4974384;28;20469;-73
2023/07/06 11:02:19;;;;;;;2.93;2.43;;;28.30;68.90;;;;;;4974505;28;20831;-74
2023/07/06 11:04:57;;;;;;;4.50;2.60;;;28.10;68.30;;;;;;4974033;28;20465;-63
2023/07/06 11:07:45;;;;;;;3.83;2.60;;;27.70;72.60;;;;;;4972754;28;20470;-64
2023/07/06 11:10:33;;;;;;;3.50;2.60;;;26.80;69.70;;;;;;4973817;28;20488;-63
2023/07/06 11:13:17;;;;;;;5.30;2.77;;;26.90;71.20;;;;;;4974083;28;20461;-63
2023/07/06 11:15:59;;;;;;;5.47;3.00;;;27.10;70.10;;;;;;4973881;28;20489;-63
2023/07/06 11:18:34;;;;;;;4.67;3.07;;;26.80;70.10;;;;;;4974047;28;20462;-64
2023/07/06 11:21:07;;;;;;;5.57;2.60;;;26.50;70.60;;;;;;5171898;23;20504;-64
2023/07/06 11:23:39;;;;;;;4.57;3.10;;;26.40;73.00;;;;;;4973430;28;20491;-63
2023/07/06 11:26:13;;;;;;;4.43;2.83;;;26.20;71.70;;;;;;4973469;28;20458;-64
2023/07/06 11:28:41;;;;;;;3.10;2.37;;;26.60;72.10;;;;;;4973185;28;21003;-63
2023/07/06 11:31:21;;;;;;;4.80;3.03;;;27.30;71.20;;;;;;4971484;28;20458;-64
2023/07/06 11:33:55;;;;;;;3.87;2.80;;;27.80;67.00;;;;;;4973074;28;20477;-63
2023/07/06 11:36:32;;;;;;;3.87;2.70;;;28.30;66.30;;;;;;4973257;28;20543;-63
2023/07/06 11:39:10;;;;;;;4.47;2.67;;;28.80;66.80;;;;;;4972968;28;20479;-64
2023/07/06 11:41:43;;;;;;;3.63;2.43;;;29.20;65.70;;;;;;4971522;28;20471;-64
2023/07/06 11:44:35;;;;;;;9.70;2.67;;;29.30;65.10;;;;;;4972669;28;20810;-64
2023/07/06 11:47:28;;;;;;;3.23;2.50;;;28.90;66.10;;;;;;4972886;28;20458;-63
2023/07/06 11:49:59;;;;;;;4.00;2.77;;;29.10;67.20;;;;;;4972844;28;20548;-64
2023/07/06 11:52:30;;;;;;;5.00;2.63;;;28.80;67.20;;;;;;4972763;28;20472;-64
2023/07/06 11:55:07;;;;;;;4.20;2.60;;;28.80;67.10;;;;;;4972769;28;20493;-64
2023/07/06 11:57:44;;;;;;;4.27;2.63;;;28.60;66.90;;;;;;4972610;28;20481;-65
2023/07/06 12:00:32;;;;;;;3.63;2.80;;;27.90;67.10;;;;;;4972609;28;20975;-63
2023/07/06 12:03:01;;;;;;;4.50;2.60;;;28.10;67.50;;;;;;4972590;28;20468;-72
2023/07/06 12:05:31;;;;;;;4.60;2.40;;;28.60;68.00;;;;;;4972570;28;20454;-71
2023/07/06 12:08:00;;;;;;;4.87;2.80;;;29.20;67.10;;;;;;4971418;28;20473;-71
2023/07/06 12:10:30;;;;;;;4.53;2.60;;;29.60;65.90;;;;;;4972268;28;20528;-71
2023/07/06 12:12:58;;;;;;;4.77;3.00;;;29.90;64.10;;;;;;4972793;28;20465;-72
2023/07/06 12:15:26;;;;;;;5.80;2.63;;;30.30;64.50;;;;;;4972545;28;20471;-72
2023/07/06 12:17:56;;;;;;;4.27;2.63;;;30.60;63.60;;;;;;4972530;28;20480;-72
2023/07/06 12:20:26;;;;;;;4.50;2.70;;;30.90;62.70;;;;;;4972268;28;20461;-71
2023/07/06 12:22:56;;;;;;;3.63;2.73;;;31.10;62.50;;;;;;4972438;28;20465;-72
2023/07/06 12:25:27;;;;;;;4.17;2.90;;;31.20;63.20;;;;;;4972708;28;20782;-72
2023/07/06 12:27:58;;;;;;;3.00;2.37;;;31.30;62.80;;;;;;4972481;28;20461;-72
2023/07/06 12:30:33;;;;;;;3.27;2.40;;;31.50;61.60;;;;;;4972527;28;20461;-72
2023/07/06 12:33:04;;;;;;;2.97;2.57;;;31.40;61.10;;;;;;4972279;28;20478;-72
2023/07/06 12:35:34;;;;;;;4.13;3.00;;;31.60;61.10;;;;;;4971181;28;20465;-72
2023/07/06 12:38:04;;;;;;;3.63;2.80;;;31.50;60.50;;;;;;4972229;28;20473;-72
2023/07/06 12:40:34;;;;;;;3.40;2.60;;;31.70;62.40;;;;;;4972233;28;20457;-72
2023/07/06 12:43:04;;;;;;;4.93;2.80;;;32.20;61.00;;;;;;4972173;28;20461;-72
2023/07/06 12:45:33;;;;;;;4.70;3.10;;;32.40;59.20;;;;;;4972176;28;20469;-72
2023/07/06 12:48:04;;;;;;;5.10;3.00;;;32.50;59.10;;;;;;4970883;28;20999;-72
2023/07/06 12:50:37;;;;;;;4.87;2.67;;;32.70;59.10;;;;;;4972696;28;20468;-72
2023/07/06 12:53:09;;;;;;;4.07;2.97;;;32.80;59.50;;;;;;4972143;28;20512;-72
2023/07/06 12:55:36;;;;;;;4.40;2.93;;;32.70;58.70;;;;;;4972036;28;20462;-72
2023/07/06 12:58:26;;;;;;;3.10;2.57;;;32.10;58.30;;;;;;4972012;28;20823;-72
2023/07/06 13:01:02;;;;;;;5.33;3.10;;;32.00;60.30;;;;;;4972214;28;20465;-72
2023/07/06 13:03:30;;;;;;;3.23;2.70;;;31.60;59.80;;;;;;4972115;28;20540;-72
2023/07/06 13:05:57;;;;;;;5.97;3.10;;;31.30;60.50;;;;;;4970867;28;20844;-72